createdAt,value
2019-01-13T00:00:14.164Z,91.56
2019-01-13T00:01:12.559Z,91.23
2019-01-13T00:02:12.546Z,91.28
2019-01-13T00:03:12.530Z,92.75
2019-01-13T00:04:12.529Z,92.27
2019-01-13T00:05:12.509Z,91.85
2019-01-13T00:06:12.494Z,91.89
2019-01-13T00:07:12.481Z,92.27
2019-01-13T00:08:12.468Z,91.89
2019-01-13T00:09:12.459Z,92.46
2019-01-13T00:10:12.446Z,91.8
2019-01-13T00:11:12.435Z,92.66
2019-01-13T00:12:12.423Z,92.18
2019-01-13T00:13:12.409Z,91.71
2019-01-13T00:14:12.397Z,92.18
2019-01-13T00:15:12.387Z,92.46
2019-01-13T00:16:12.375Z,92.37
2019-01-13T00:17:12.364Z,91.89
2019-01-13T00:18:12.348Z,92.18
2019-01-13T00:19:12.337Z,91.99
2019-01-13T00:20:12.325Z,91.89
2019-01-13T00:21:12.318Z,91.04
2019-01-13T00:22:12.300Z,91.13
2019-01-13T00:23:12.301Z,91.33
2019-01-13T00:24:12.281Z,91.04
2019-01-13T00:25:12.265Z,91.04
2019-01-13T00:26:12.261Z,91.04
2019-01-13T00:27:12.243Z,91.23
2019-01-13T00:28:12.230Z,91.47
2019-01-13T00:29:12.215Z,91.18
2019-01-13T00:30:18.812Z,91.75
2019-01-13T00:31:12.198Z,91.18
2019-01-13T00:32:12.180Z,91.28
2019-01-13T00:33:11.927Z,91.08
2019-01-13T00:34:12.159Z,91.37
2019-01-13T00:35:12.147Z,91.47
2019-01-13T00:36:12.133Z,91.37
2019-01-13T00:37:12.122Z,91.37
2019-01-13T00:38:12.109Z,91.94
2019-01-13T00:39:12.101Z,92.13
2019-01-13T00:40:12.088Z,91.75
2019-01-13T00:41:12.073Z,90.99
2019-01-13T00:42:12.063Z,91.13
2019-01-13T00:43:12.049Z,91.28
2019-01-13T00:44:12.035Z,91.47
2019-01-13T00:45:12.025Z,92.13
2019-01-13T00:46:12.039Z,92.8
2019-01-13T00:47:12.002Z,92.7
2019-01-13T00:48:11.989Z,91.85
2019-01-13T00:49:11.982Z,92.13
2019-01-13T00:50:11.968Z,92.03
2019-01-13T00:51:11.965Z,91.85
2019-01-13T00:52:11.941Z,92.22
2019-01-13T00:53:11.929Z,92.13
2019-01-13T00:54:11.916Z,91.8
2019-01-13T00:55:11.904Z,91.89
2019-01-13T00:56:11.892Z,91.61
2019-01-13T00:57:11.882Z,91.85
2019-01-13T00:58:11.867Z,92.27
2019-01-13T00:59:11.865Z,91.99
2019-01-13T01:00:11.846Z,92.37
2019-01-13T01:01:11.833Z,92.27
2019-01-13T01:02:11.819Z,92.27
2019-01-13T01:03:11.808Z,92.66
2019-01-13T01:04:11.797Z,93.23
2019-01-13T01:05:11.785Z,93.6
2019-01-13T01:06:11.773Z,93.23
2019-01-13T01:07:11.767Z,92.66
2019-01-13T01:08:11.747Z,93.23
2019-01-13T01:09:11.733Z,93.04
2019-01-13T01:10:11.723Z,93.51
2019-01-13T01:11:11.710Z,93.41
2019-01-13T01:12:11.698Z,93.13
2019-01-13T01:13:11.686Z,93.32
2019-01-13T01:14:11.676Z,93.04
2019-01-13T01:15:11.660Z,93.7
2019-01-13T01:16:11.647Z,93.13
2019-01-13T01:17:11.635Z,93.41
2019-01-13T01:18:11.628Z,92.37
2019-01-13T01:19:11.614Z,92.66
2019-01-13T01:20:11.598Z,92.46
2019-01-13T01:21:11.587Z,92.37
2019-01-13T01:22:11.574Z,93.23
2019-01-13T01:23:11.562Z,92.46
2019-01-13T01:24:11.549Z,93.13
2019-01-13T01:25:11.537Z,93.23
2019-01-13T01:26:11.527Z,93.08
2019-01-13T01:27:11.519Z,92.42
2019-01-13T01:28:11.499Z,92.61
2019-01-13T01:29:11.492Z,92.61
2019-01-13T01:30:11.476Z,93.08
2019-01-13T01:31:11.464Z,92.51
2019-01-13T01:32:11.452Z,92.8
2019-01-13T01:33:11.439Z,92.61
2019-01-13T01:34:11.425Z,92.51
2019-01-13T01:35:11.414Z,92.51
2019-01-13T01:36:11.399Z,92.23
2019-01-13T01:37:11.389Z,92.61
2019-01-13T01:38:11.377Z,92.71
2019-01-13T01:39:11.363Z,92.71
2019-01-13T01:40:11.350Z,92.71
2019-01-13T01:41:11.338Z,92.42
2019-01-13T01:42:11.331Z,92.42
2019-01-13T01:43:11.314Z,92.23
2019-01-13T01:44:11.300Z,92.04
2019-01-13T01:45:11.287Z,92.13
2019-01-13T01:46:11.281Z,92.61
2019-01-13T01:47:11.262Z,92.04
2019-01-13T01:48:11.251Z,92.04
2019-01-13T01:49:11.237Z,92.8
2019-01-13T01:50:11.224Z,92.42
2019-01-13T01:51:11.212Z,94.03
2019-01-13T01:52:11.201Z,93.08
2019-01-13T01:53:11.187Z,93.08
2019-01-13T01:54:11.174Z,92.61
2019-01-13T01:55:11.162Z,93.18
2019-01-13T01:56:11.152Z,94.08
2019-01-13T01:57:11.136Z,93.08
2019-01-13T01:58:11.124Z,93.46
2019-01-13T01:59:11.115Z,92.99
2019-01-13T02:00:11.099Z,93.08
2019-01-13T02:01:11.088Z,93.37
2019-01-13T02:02:11.079Z,92.8
2019-01-13T02:03:11.083Z,93.08
2019-01-13T02:04:11.085Z,93.37
2019-01-13T02:05:11.083Z,93.94
2019-01-13T02:06:11.060Z,93.08
2019-01-13T02:07:11.023Z,92.99
2019-01-13T02:08:10.822Z,93.46
2019-01-13T02:09:10.986Z,93.37
2019-01-13T02:10:10.974Z,93.18
2019-01-13T02:11:10.960Z,93.08
2019-01-13T02:12:10.949Z,92.99
2019-01-13T02:13:10.938Z,92.9
2019-01-13T02:14:10.925Z,93.75
2019-01-13T02:15:10.912Z,93.75
2019-01-13T02:16:10.899Z,93.75
2019-01-13T02:17:10.889Z,93.75
2019-01-13T02:18:10.875Z,93.08
2019-01-13T02:19:10.857Z,92.99
2019-01-13T02:20:10.846Z,93.75
2019-01-13T02:21:10.836Z,94.03
2019-01-13T02:22:10.821Z,93.18
2019-01-13T02:23:10.807Z,93.08
2019-01-13T02:24:10.798Z,93.08
2019-01-13T02:25:10.783Z,92.99
2019-01-13T02:26:10.773Z,92.9
2019-01-13T02:27:10.762Z,94.03
2019-01-13T02:28:10.518Z,94.13
2019-01-13T02:29:10.732Z,93.46
2019-01-13T02:30:10.727Z,93.37
2019-01-13T02:31:10.716Z,94.03
2019-01-13T02:32:10.697Z,93.46
2019-01-13T02:33:10.683Z,93.37
2019-01-13T02:34:10.682Z,93.04
2019-01-13T02:35:10.662Z,93.13
2019-01-13T02:36:10.646Z,93.41
2019-01-13T02:37:10.632Z,92.8
2019-01-13T02:38:10.620Z,93.56
2019-01-13T02:39:10.608Z,93.41
2019-01-13T02:40:10.600Z,93.32
2019-01-13T02:41:10.583Z,93.13
2019-01-13T02:42:10.580Z,92.56
2019-01-13T02:43:10.558Z,92.85
2019-01-13T02:44:10.543Z,92.94
2019-01-13T02:45:10.535Z,92.56
2019-01-13T02:46:10.524Z,92.18
2019-01-13T02:47:10.507Z,92.18
2019-01-13T02:48:10.495Z,92.46
2019-01-13T02:49:10.486Z,91.8
2019-01-13T02:50:10.473Z,91.8
2019-01-13T02:51:10.467Z,91.8
2019-01-13T02:52:10.451Z,92.18
2019-01-13T02:53:10.435Z,92.37
2019-01-13T02:54:10.472Z,92.66
2019-01-13T02:55:10.407Z,92.46
2019-01-13T02:56:10.408Z,92.18
2019-01-13T02:57:10.388Z,92.18
2019-01-13T02:58:10.371Z,91.8
2019-01-13T02:59:10.358Z,91.99
2019-01-13T03:00:10.354Z,92.08
2019-01-13T03:01:10.335Z,91.13
2019-01-13T03:02:10.324Z,91.33
2019-01-13T03:03:10.326Z,91.13
2019-01-13T03:04:10.299Z,91.13
2019-01-13T03:05:10.289Z,91.42
2019-01-13T03:06:10.274Z,91.89
2019-01-13T03:07:10.260Z,91.71
2019-01-13T03:08:10.252Z,91.13
2019-01-13T03:09:10.239Z,91.42
2019-01-13T03:10:10.222Z,91.33
2019-01-13T03:11:10.217Z,91.04
2019-01-13T03:12:10.201Z,91.52
2019-01-13T03:13:10.189Z,91.13
2019-01-13T03:14:10.181Z,91.13
2019-01-13T03:15:10.165Z,91.23
2019-01-13T03:16:10.152Z,91.13
2019-01-13T03:17:10.139Z,91.13
2019-01-13T03:18:10.125Z,91.13
2019-01-13T03:19:10.114Z,91.23
2019-01-13T03:20:10.104Z,91.33
2019-01-13T03:21:10.089Z,91.23
2019-01-13T03:22:10.081Z,90.85
2019-01-13T03:23:10.067Z,91.42
2019-01-13T03:24:10.071Z,91.33
2019-01-13T03:25:11.982Z,91.99
2019-01-13T03:26:10.028Z,92.18
2019-01-13T03:27:10.017Z,92.46
2019-01-13T03:28:10.005Z,92.18
2019-01-13T03:29:10.008Z,92.46
2019-01-13T03:30:09.990Z,92.66
2019-01-13T03:31:14.888Z,92.27
2019-01-13T03:32:09.966Z,91.61
2019-01-13T03:33:09.948Z,91.99
2019-01-13T03:34:09.931Z,92.18
2019-01-13T03:35:09.916Z,92.66
2019-01-13T03:36:09.903Z,92.08
2019-01-13T03:37:09.919Z,92.18
2019-01-13T03:38:09.885Z,91.8
2019-01-13T03:39:09.870Z,92.08
2019-01-13T03:40:09.855Z,91.99
2019-01-13T03:41:09.843Z,92.08
2019-01-13T03:42:09.831Z,91.89
2019-01-13T03:43:09.819Z,92.08
2019-01-13T03:44:09.808Z,91.89
2019-01-13T03:45:09.796Z,91.89
2019-01-13T03:46:09.783Z,92.08
2019-01-13T03:47:09.772Z,91.42
2019-01-13T03:48:09.756Z,91.42
2019-01-13T03:49:09.753Z,91.33
2019-01-13T03:50:09.740Z,91.04
2019-01-13T03:51:09.726Z,90.85
2019-01-13T03:52:09.708Z,91.13
2019-01-13T03:53:09.704Z,91.33
2019-01-13T03:54:09.685Z,91.13
2019-01-13T03:55:09.675Z,91.33
2019-01-13T03:56:09.665Z,90.85
2019-01-13T03:57:09.644Z,91.13
2019-01-13T03:58:11.179Z,91.42
2019-01-13T03:59:09.666Z,91.23
2019-01-13T04:00:09.612Z,91.23
2019-01-13T04:01:09.596Z,90.94
2019-01-13T04:02:09.588Z,91.23
2019-01-13T04:03:09.577Z,91.13
2019-01-13T04:04:09.559Z,91.23
2019-01-13T04:05:09.553Z,90.85
2019-01-13T04:06:09.536Z,90.85
2019-01-13T04:07:09.539Z,90.85
2019-01-13T04:08:09.508Z,91.13
2019-01-13T04:09:09.519Z,90.94
2019-01-13T04:10:09.487Z,90.94
2019-01-13T04:11:09.476Z,90.85
2019-01-13T04:12:09.459Z,91.04
2019-01-13T04:13:09.451Z,90.75
2019-01-13T04:14:09.436Z,90.85
2019-01-13T04:15:09.423Z,90.85
2019-01-13T04:16:09.415Z,90.85
2019-01-13T04:17:09.399Z,90.47
2019-01-13T04:18:09.387Z,90.85
2019-01-13T04:19:09.373Z,90.75
2019-01-13T04:20:09.361Z,90.66
2019-01-13T04:21:09.350Z,90.56
2019-01-13T04:22:09.337Z,90.56
2019-01-13T04:23:09.327Z,90.66
2019-01-13T04:24:09.312Z,90.56
2019-01-13T04:25:09.298Z,91.04
2019-01-13T04:26:09.285Z,90.94
2019-01-13T04:27:09.273Z,90.85
2019-01-13T04:28:09.264Z,90.28
2019-01-13T04:29:09.251Z,90.56
2019-01-13T04:30:09.239Z,90.47
2019-01-13T04:31:09.232Z,90.28
2019-01-13T04:32:09.286Z,90.37
2019-01-13T04:33:09.205Z,90.47
2019-01-13T04:34:09.191Z,91.61
2019-01-13T04:35:09.184Z,91.13
2019-01-13T04:36:09.161Z,91.04
2019-01-13T04:37:09.149Z,90.85
2019-01-13T04:38:09.139Z,91.13
2019-01-13T04:39:09.123Z,90.66
2019-01-13T04:40:09.112Z,90.47
2019-01-13T04:41:09.107Z,90.66
2019-01-13T04:42:09.088Z,90.75
2019-01-13T04:43:09.077Z,90.56
2019-01-13T04:44:09.064Z,90.56
2019-01-13T04:45:09.048Z,90.37
2019-01-13T04:46:09.039Z,90.37
2019-01-13T04:47:09.024Z,90.37
2019-01-13T04:48:09.035Z,90.37
2019-01-13T04:49:09.000Z,89.9
2019-01-13T04:50:08.988Z,90
2019-01-13T04:51:08.979Z,90.28
2019-01-13T04:52:08.964Z,90
2019-01-13T04:53:08.952Z,90
2019-01-13T04:54:08.940Z,90
2019-01-13T04:55:08.927Z,90.09
2019-01-13T04:56:08.917Z,89.9
2019-01-13T04:57:08.902Z,90.09
2019-01-13T04:58:08.936Z,89.71
2019-01-13T04:59:08.883Z,89.8
2019-01-13T05:00:08.863Z,89.61
2019-01-13T05:01:08.858Z,90.09
2019-01-13T05:02:08.846Z,89.61
2019-01-13T05:03:08.850Z,89.61
2019-01-13T05:04:08.814Z,89.71
2019-01-13T05:05:08.803Z,90.28
2019-01-13T05:06:08.790Z,90
2019-01-13T05:07:08.778Z,90.09
2019-01-13T05:08:08.765Z,89.9
2019-01-13T05:09:08.752Z,90.09
2019-01-13T05:10:08.738Z,89.9
2019-01-13T05:11:08.727Z,89.71
2019-01-13T05:12:08.715Z,90.09
2019-01-13T05:13:08.706Z,90.19
2019-01-13T05:14:08.690Z,90.28
2019-01-13T05:15:08.690Z,90.37
2019-01-13T05:16:08.667Z,90.85
2019-01-13T05:17:08.653Z,90.56
2019-01-13T05:18:08.646Z,90.09
2019-01-13T05:19:08.629Z,90
2019-01-13T05:20:08.620Z,90.09
2019-01-13T05:21:08.613Z,89.61
2019-01-13T05:22:08.600Z,89.52
2019-01-13T05:23:08.583Z,89.9
2019-01-13T05:24:08.572Z,90.09
2019-01-13T05:25:08.554Z,89.8
2019-01-13T05:26:08.541Z,89.9
2019-01-13T05:27:08.529Z,90.19
2019-01-13T05:28:08.524Z,89.9
2019-01-13T05:29:08.506Z,89.61
2019-01-13T05:30:08.494Z,90.09
2019-01-13T05:31:08.482Z,90.19
2019-01-13T05:32:08.471Z,90.47
2019-01-13T05:33:08.463Z,90.37
2019-01-13T05:34:08.443Z,90.28
2019-01-13T05:35:08.435Z,90.19
2019-01-13T05:36:08.423Z,90.19
2019-01-13T05:37:08.424Z,90.28
2019-01-13T05:38:08.396Z,90.19
2019-01-13T05:39:08.389Z,90.19
2019-01-13T05:40:08.369Z,90.37
2019-01-13T05:41:08.366Z,90.47
2019-01-13T05:42:08.347Z,90.47
2019-01-13T05:43:08.334Z,90.56
2019-01-13T05:44:08.322Z,90.56
2019-01-13T05:45:08.311Z,90.28
2019-01-13T05:46:08.308Z,90.37
2019-01-13T05:47:08.287Z,89.8
2019-01-13T05:48:08.271Z,89.8
2019-01-13T05:49:08.258Z,90
2019-01-13T05:50:08.248Z,90.47
2019-01-13T05:51:08.239Z,90.37
2019-01-13T05:52:08.222Z,90.19
2019-01-13T05:53:08.209Z,89.8
2019-01-13T05:54:08.200Z,89.9
2019-01-13T05:55:08.187Z,90.19
2019-01-13T05:56:08.176Z,90.09
2019-01-13T05:57:08.160Z,89.71
2019-01-13T05:58:08.152Z,89.71
2019-01-13T05:59:07.893Z,89.71
2019-01-13T06:00:08.124Z,89.71
2019-01-13T06:01:08.124Z,89.71
2019-01-13T06:02:08.099Z,89.8
2019-01-13T06:03:08.084Z,90.09
2019-01-13T06:04:08.076Z,90.28
2019-01-13T06:05:08.061Z,90.47
2019-01-13T06:06:08.050Z,90.47
2019-01-13T06:07:08.042Z,90.47
2019-01-13T06:08:08.027Z,90.37
2019-01-13T06:09:08.014Z,90.19
2019-01-13T06:10:07.999Z,89.71
2019-01-13T06:11:07.988Z,89.61
2019-01-13T06:12:07.975Z,89.61
2019-01-13T06:13:07.963Z,90
2019-01-13T06:14:07.950Z,89.61
2019-01-13T06:15:07.945Z,90
2019-01-13T06:16:07.926Z,89.71
2019-01-13T06:17:07.918Z,90
2019-01-13T06:18:07.901Z,89.71
2019-01-13T06:19:07.891Z,89.8
2019-01-13T06:20:07.875Z,90
2019-01-13T06:21:07.866Z,90.28
2019-01-13T06:22:07.868Z,90.19
2019-01-13T06:23:07.840Z,90.66
2019-01-13T06:24:09.322Z,90.66
2019-01-13T06:25:07.824Z,91.23
2019-01-13T06:26:07.804Z,90.85
2019-01-13T06:27:07.789Z,90.85
2019-01-13T06:28:07.777Z,90.19
2019-01-13T06:29:07.766Z,89.8
2019-01-13T06:30:08.915Z,90
2019-01-13T06:31:07.741Z,89.71
2019-01-13T06:32:07.733Z,89.61
2019-01-13T06:33:07.719Z,89.61
2019-01-13T06:34:07.704Z,89.71
2019-01-13T06:35:07.692Z,89.9
2019-01-13T06:36:07.691Z,89.52
2019-01-13T06:37:07.671Z,89.52
2019-01-13T06:38:08.718Z,89.42
2019-01-13T06:39:07.644Z,89.71
2019-01-13T06:40:07.635Z,89.9
2019-01-13T06:41:07.618Z,90.28
2019-01-13T06:42:07.609Z,90
2019-01-13T06:43:07.592Z,90.19
2019-01-13T06:44:07.580Z,89.71
2019-01-13T06:45:07.570Z,89.8
2019-01-13T06:46:07.556Z,89.8
2019-01-13T06:47:07.543Z,89.71
2019-01-13T06:48:07.565Z,89.9
2019-01-13T06:49:07.519Z,90.09
2019-01-13T06:50:07.508Z,89.8
2019-01-13T06:51:07.498Z,89.61
2019-01-13T06:52:07.484Z,90
2019-01-13T06:53:07.475Z,89.9
2019-01-13T06:54:07.458Z,89.42
2019-01-13T06:55:07.447Z,89.71
2019-01-13T06:56:07.436Z,89.8
2019-01-13T06:57:07.423Z,90.09
2019-01-13T06:58:07.415Z,89.71
2019-01-13T06:59:07.411Z,89.61
2019-01-13T07:00:07.395Z,89.71
2019-01-13T07:01:07.378Z,89.9
2019-01-13T07:02:07.366Z,90.37
2019-01-13T07:03:07.349Z,90.56
2019-01-13T07:04:07.339Z,90.47
2019-01-13T07:05:07.323Z,90.37
2019-01-13T07:06:07.314Z,90.09
2019-01-13T07:07:07.297Z,90.19
2019-01-13T07:08:07.289Z,90.19
2019-01-13T07:09:07.280Z,89.9
2019-01-13T07:10:07.267Z,90.19
2019-01-13T07:11:07.251Z,90
2019-01-13T07:12:07.237Z,89.71
2019-01-13T07:13:07.225Z,90.37
2019-01-13T07:14:07.212Z,90.47
2019-01-13T07:15:07.207Z,90.37
2019-01-13T07:16:07.192Z,89.9
2019-01-13T07:17:07.176Z,89.9
2019-01-13T07:18:07.167Z,90.09
2019-01-13T07:19:07.154Z,90.28
2019-01-13T07:20:07.138Z,90
2019-01-13T07:21:07.125Z,90
2019-01-13T07:22:07.117Z,89.71
2019-01-13T07:23:07.106Z,89.52
2019-01-13T07:24:07.089Z,89.52
2019-01-13T07:25:07.076Z,89.71
2019-01-13T07:26:07.064Z,89.61
2019-01-13T07:27:07.054Z,89.42
2019-01-13T07:28:07.040Z,89.04
2019-01-13T07:29:07.030Z,89.23
2019-01-13T07:30:07.022Z,89.23
2019-01-13T07:31:07.006Z,89.37
2019-01-13T07:32:13.188Z,89.94
2019-01-13T07:33:06.981Z,89.47
2019-01-13T07:34:06.972Z,90.04
2019-01-13T07:35:06.957Z,90.04
2019-01-13T07:36:06.944Z,90.23
2019-01-13T07:37:06.931Z,90.23
2019-01-13T07:38:06.919Z,90.61
2019-01-13T07:39:06.678Z,90.8
2019-01-13T07:40:06.897Z,90.8
2019-01-13T07:41:06.883Z,90.52
2019-01-13T07:42:06.874Z,90.33
2019-01-13T07:43:06.859Z,90.8
2019-01-13T07:44:06.846Z,90.23
2019-01-13T07:45:06.840Z,90.7
2019-01-13T07:46:06.829Z,90.89
2019-01-13T07:47:06.808Z,90.61
2019-01-13T07:48:06.799Z,90.89
2019-01-13T07:49:06.787Z,90.89
2019-01-13T07:50:06.778Z,90.52
2019-01-13T07:51:06.766Z,90.61
2019-01-13T07:52:06.751Z,90.61
2019-01-13T07:53:06.739Z,90.61
2019-01-13T07:54:06.728Z,90.61
2019-01-13T07:55:06.714Z,90.61
2019-01-13T07:56:06.706Z,90.33
2019-01-13T07:57:06.691Z,90.23
2019-01-13T07:58:06.679Z,90.42
2019-01-13T07:59:06.667Z,90.52
2019-01-13T08:00:06.655Z,90.7
2019-01-13T08:01:06.643Z,90.52
2019-01-13T08:02:06.632Z,90.52
2019-01-13T08:03:06.621Z,92.13
2019-01-13T08:04:06.609Z,91.28
2019-01-13T08:05:06.598Z,91.47
2019-01-13T08:06:06.584Z,91.18
2019-01-13T08:07:06.573Z,90.99
2019-01-13T08:08:06.562Z,90.99
2019-01-13T08:09:06.549Z,92.13
2019-01-13T08:10:06.538Z,91.37
2019-01-13T08:11:06.525Z,91.94
2019-01-13T08:12:06.515Z,91.18
2019-01-13T08:13:06.502Z,91.66
2019-01-13T08:14:06.492Z,92.03
2019-01-13T08:15:06.481Z,92.03
2019-01-13T08:16:06.473Z,91.18
2019-01-13T08:17:06.455Z,91.56
2019-01-13T08:18:06.443Z,91.18
2019-01-13T08:19:06.446Z,91.08
2019-01-13T08:20:06.420Z,90.7
2019-01-13T08:21:06.413Z,90.52
2019-01-13T08:22:06.397Z,90.42
2019-01-13T08:23:06.385Z,91.18
2019-01-13T08:24:06.372Z,90.8
2019-01-13T08:25:06.361Z,90.89
2019-01-13T08:26:06.349Z,91.37
2019-01-13T08:27:06.340Z,91.18
2019-01-13T08:28:06.326Z,91.18
2019-01-13T08:29:06.314Z,90.99
2019-01-13T08:30:06.304Z,91.28
2019-01-13T08:31:06.291Z,91.28
2019-01-13T08:32:06.280Z,90.8
2019-01-13T08:33:06.273Z,90.7
2019-01-13T08:34:06.257Z,90.8
2019-01-13T08:35:06.246Z,90.89
2019-01-13T08:36:06.238Z,90.61
2019-01-13T08:37:06.222Z,90.7
2019-01-13T08:38:06.210Z,90.8
2019-01-13T08:39:06.199Z,91.18
2019-01-13T08:40:06.188Z,90.7
2019-01-13T08:41:06.184Z,90.42
2019-01-13T08:42:06.165Z,90.89
2019-01-13T08:43:06.156Z,90.99
2019-01-13T08:44:06.143Z,90.37
2019-01-13T08:45:06.129Z,90.28
2019-01-13T08:46:06.116Z,90.84
2019-01-13T08:47:06.114Z,90.28
2019-01-13T08:48:06.095Z,90.84
2019-01-13T08:49:06.084Z,90.56
2019-01-13T08:50:06.075Z,90.66
2019-01-13T08:51:06.059Z,90.56
2019-01-13T08:52:06.048Z,90.37
2019-01-13T08:53:06.038Z,90.18
2019-01-13T08:54:06.025Z,90.18
2019-01-13T08:55:06.016Z,90.47
2019-01-13T08:56:06.003Z,90.84
2019-01-13T08:57:05.989Z,90.28
2019-01-13T08:58:05.988Z,90.47
2019-01-13T08:59:05.972Z,90.18
2019-01-13T09:00:05.957Z,90.37
2019-01-13T09:01:05.947Z,90.28
2019-01-13T09:02:05.935Z,90.28
2019-01-13T09:03:05.925Z,90.37
2019-01-13T09:04:05.917Z,90.47
2019-01-13T09:05:05.905Z,90.84
2019-01-13T09:06:05.893Z,90.94
2019-01-13T09:07:05.879Z,90.94
2019-01-13T09:08:05.880Z,90.37
2019-01-13T09:09:05.860Z,90.94
2019-01-13T09:10:05.843Z,90.66
2019-01-13T09:11:05.831Z,90.56
2019-01-13T09:12:05.825Z,90.94
2019-01-13T09:13:05.810Z,90.94
2019-01-13T09:14:05.807Z,90.56
2019-01-13T09:15:05.785Z,90.18
2019-01-13T09:16:05.778Z,89.99
2019-01-13T09:17:05.765Z,90.37
2019-01-13T09:18:05.754Z,90.94
2019-01-13T09:19:05.745Z,90.37
2019-01-13T09:20:05.731Z,90.66
2019-01-13T09:21:05.726Z,90.47
2019-01-13T09:22:05.708Z,90.28
2019-01-13T09:23:05.707Z,90.56
2019-01-13T09:24:05.687Z,90.84
2019-01-13T09:25:05.674Z,91.61
2019-01-13T09:26:05.663Z,91.32
2019-01-13T09:27:05.658Z,91.22
2019-01-13T09:28:06.136Z,91.22
2019-01-13T09:29:05.633Z,91.32
2019-01-13T09:30:05.618Z,91.32
2019-01-13T09:31:05.613Z,91.61
2019-01-13T09:32:05.595Z,91.51
2019-01-13T09:33:05.718Z,91.42
2019-01-13T09:34:05.573Z,91.51
2019-01-13T09:35:05.562Z,91.32
2019-01-13T09:36:05.554Z,91.22
2019-01-13T09:37:05.540Z,91.42
2019-01-13T09:38:06.651Z,91.51
2019-01-13T09:39:05.526Z,91.03
2019-01-13T09:40:05.512Z,91.22
2019-01-13T09:41:05.495Z,91.22
2019-01-13T09:42:05.485Z,91.13
2019-01-13T09:43:05.478Z,91.03
2019-01-13T09:44:05.461Z,90.94
2019-01-13T09:45:05.450Z,91.32
2019-01-13T09:46:05.442Z,91.03
2019-01-13T09:47:05.428Z,91.32
2019-01-13T09:48:05.421Z,91.13
2019-01-13T09:49:05.408Z,91.42
2019-01-13T09:50:05.393Z,91.13
2019-01-13T09:51:05.383Z,91.03
2019-01-13T09:52:05.371Z,91.03
2019-01-13T09:53:05.362Z,90.75
2019-01-13T09:54:05.362Z,90.56
2019-01-13T09:55:05.346Z,91.32
2019-01-13T09:56:05.328Z,90.94
2019-01-13T09:57:05.320Z,90.94
2019-01-13T09:58:05.306Z,90.94
2019-01-13T09:59:05.293Z,90.94
2019-01-13T10:00:05.279Z,90.94
2019-01-13T10:01:05.279Z,91.13
2019-01-13T10:02:05.257Z,91.42
2019-01-13T10:03:05.266Z,91.32
2019-01-13T10:04:05.240Z,91.7
2019-01-13T10:05:05.227Z,91.22
2019-01-13T10:06:05.227Z,91.03
2019-01-13T10:07:05.201Z,91.13
2019-01-13T10:08:05.192Z,91.32
2019-01-13T10:09:05.183Z,91.22
2019-01-13T10:10:05.167Z,92.08
2019-01-13T10:11:05.160Z,91.18
2019-01-13T10:12:05.147Z,90.99
2019-01-13T10:13:05.133Z,91.37
2019-01-13T10:14:05.122Z,91.37
2019-01-13T10:15:05.112Z,90.99
2019-01-13T10:16:05.104Z,90.89
2019-01-13T10:17:05.088Z,91.08
2019-01-13T10:18:05.079Z,90.89
2019-01-13T10:19:05.064Z,90.8
2019-01-13T10:20:05.055Z,90.61
2019-01-13T10:21:05.069Z,90.33
2019-01-13T10:22:05.032Z,90.18
2019-01-13T10:23:05.024Z,89.8
2019-01-13T10:24:05.018Z,89.66
2019-01-13T10:25:04.998Z,89.99
2019-01-13T10:26:04.984Z,89.99
2019-01-13T10:27:04.977Z,90.28
2019-01-13T10:28:04.962Z,90.37
2019-01-13T10:29:04.953Z,90.75
2019-01-13T10:30:04.940Z,90.75
2019-01-13T10:31:05.726Z,90.37
2019-01-13T10:32:04.920Z,91.03
2019-01-13T10:33:04.914Z,90.75
2019-01-13T10:34:04.896Z,91.22
2019-01-13T10:35:04.892Z,91.32
2019-01-13T10:36:04.874Z,91.37
2019-01-13T10:37:04.861Z,91.08
2019-01-13T10:38:04.854Z,90.84
2019-01-13T10:39:04.842Z,90.7
2019-01-13T10:40:04.826Z,90.52
2019-01-13T10:41:04.817Z,90.33
2019-01-13T10:42:04.808Z,89.75
2019-01-13T10:43:04.797Z,89.51
2019-01-13T10:44:04.784Z,89.61
2019-01-13T10:45:04.772Z,90.08
2019-01-13T10:46:04.764Z,90.08
2019-01-13T10:47:04.750Z,90.18
2019-01-13T10:48:04.752Z,89.7
2019-01-13T10:49:04.726Z,89.7
2019-01-13T10:50:04.717Z,89.89
2019-01-13T10:51:04.703Z,89.8
2019-01-13T10:52:04.695Z,90.47
2019-01-13T10:53:04.684Z,90.75
2019-01-13T10:54:11.622Z,90.18
2019-01-13T10:55:04.660Z,90.28
2019-01-13T10:56:04.709Z,90.18
2019-01-13T10:57:04.397Z,90.56
2019-01-13T10:58:04.633Z,91.42
2019-01-13T10:59:04.616Z,90.66
2019-01-13T11:00:04.607Z,90.84
2019-01-13T11:01:04.592Z,90.66
2019-01-13T11:02:04.656Z,90.37
2019-01-13T11:03:05.204Z,90.37
2019-01-13T11:04:04.559Z,89.99
2019-01-13T11:05:04.547Z,89.61
2019-01-13T11:06:04.539Z,89.32
2019-01-13T11:07:04.523Z,88.94
2019-01-13T11:08:10.986Z,89.89
2019-01-13T11:09:04.512Z,90.28
2019-01-13T11:10:04.499Z,90.75
2019-01-13T11:11:04.488Z,90.56
2019-01-13T11:12:04.474Z,90.84
2019-01-13T11:13:04.460Z,90.75
2019-01-13T11:14:04.449Z,90.47
2019-01-13T11:15:04.440Z,90.94
2019-01-13T11:16:04.428Z,90.66
2019-01-13T11:17:04.420Z,90.94
2019-01-13T11:18:04.403Z,90.66
2019-01-13T11:19:04.401Z,91.32
2019-01-13T11:20:04.385Z,91.03
2019-01-13T11:21:04.378Z,91.42
2019-01-13T11:22:04.363Z,91.47
2019-01-13T11:23:04.356Z,91.18
2019-01-13T11:24:04.857Z,91.47
2019-01-13T11:25:04.352Z,91.18
2019-01-13T11:26:04.315Z,91.28
2019-01-13T11:27:04.303Z,91.37
2019-01-13T11:28:04.293Z,90.89
2019-01-13T11:29:04.282Z,90.7
2019-01-13T11:30:04.272Z,90.52
2019-01-13T11:31:04.267Z,90.99
2019-01-13T11:32:04.248Z,91.18
2019-01-13T11:33:11.701Z,91.37
2019-01-13T11:34:04.224Z,91.08
2019-01-13T11:35:04.220Z,91.18
2019-01-13T11:36:04.205Z,91.18
2019-01-13T11:37:04.191Z,91.08
2019-01-13T11:38:04.183Z,91.47
2019-01-13T11:39:04.170Z,90.89
2019-01-13T11:40:04.166Z,90.89
2019-01-13T11:41:04.147Z,89.94
2019-01-13T11:42:04.139Z,89.85
2019-01-13T11:43:04.129Z,90.23
2019-01-13T11:44:04.123Z,90.75
2019-01-13T11:45:04.103Z,90.23
2019-01-13T11:46:04.093Z,90.66
2019-01-13T11:47:04.080Z,90.75
2019-01-13T11:48:04.067Z,90.66
2019-01-13T11:49:04.059Z,90.23
2019-01-13T11:50:04.077Z,89.32
2019-01-13T11:51:04.042Z,89.8
2019-01-13T11:52:04.024Z,91.32
2019-01-13T11:53:04.013Z,90.94
2019-01-13T11:54:04.002Z,90.75
2019-01-13T11:55:03.989Z,91.32
2019-01-13T11:56:03.990Z,90.94
2019-01-13T11:57:03.972Z,91.13
2019-01-13T11:58:03.960Z,91.03
2019-01-13T11:59:03.943Z,90.8
2019-01-13T12:00:03.942Z,91.18
2019-01-13T12:01:03.924Z,91.37
2019-01-13T12:02:03.916Z,90.84
2019-01-13T12:03:16.466Z,90.7
2019-01-13T12:04:03.895Z,90.8
2019-01-13T12:05:03.883Z,91.08
2019-01-13T12:06:03.881Z,90.89
2019-01-13T12:07:03.862Z,90.61
2019-01-13T12:08:03.844Z,90.89
2019-01-13T12:09:03.833Z,91.08
2019-01-13T12:10:03.820Z,90.7
2019-01-13T12:11:03.814Z,91.28
2019-01-13T12:12:03.805Z,91.47
2019-01-13T12:13:03.789Z,91.37
2019-01-13T12:14:03.537Z,91.18
2019-01-13T12:15:03.771Z,90.52
2019-01-13T12:16:03.766Z,90.23
2019-01-13T12:17:03.747Z,90.23
2019-01-13T12:18:03.731Z,90.89
2019-01-13T12:19:03.717Z,90.52
2019-01-13T12:20:03.723Z,90.52
2019-01-13T12:21:03.697Z,90.33
2019-01-13T12:22:03.685Z,90.52
2019-01-13T12:23:03.674Z,90.33
2019-01-13T12:24:03.669Z,90.99
2019-01-13T12:25:03.650Z,90.52
2019-01-13T12:26:03.643Z,90.33
2019-01-13T12:27:03.629Z,90.23
2019-01-13T12:28:03.616Z,90.23
2019-01-13T12:29:03.603Z,90.23
2019-01-13T12:30:03.609Z,90.23
2019-01-13T12:31:03.586Z,91.08
2019-01-13T12:32:03.574Z,91.18
2019-01-13T12:33:03.566Z,90.61
2019-01-13T12:34:03.547Z,90.7
2019-01-13T12:35:03.535Z,90.7
2019-01-13T12:36:03.526Z,90.99
2019-01-13T12:37:03.513Z,90.42
2019-01-13T12:38:03.503Z,90.23
2019-01-13T12:39:03.491Z,89.66
2019-01-13T12:40:03.480Z,90.14
2019-01-13T12:41:03.469Z,90.33
2019-01-13T12:42:03.215Z,89.94
2019-01-13T12:43:03.446Z,89.94
2019-01-13T12:44:03.560Z,90.8
2019-01-13T12:45:03.420Z,90.7
2019-01-13T12:46:03.410Z,90.99
2019-01-13T12:47:03.397Z,90.61
2019-01-13T12:48:03.385Z,90.33
2019-01-13T12:49:03.378Z,90.61
2019-01-13T12:50:03.371Z,89.94
2019-01-13T12:51:03.353Z,89.94
2019-01-13T12:52:03.339Z,90.23
2019-01-13T12:53:03.332Z,90.04
2019-01-13T12:54:03.316Z,89.75
2019-01-13T12:55:03.309Z,89.66
2019-01-13T12:56:03.292Z,90.23